MMRX/REX METAR and TAF weather

Enter ICAO airport designator
Station Type Date Time Source
MMRX METAR 2023/01/30 11:52 UTC NOAA

MMRX 301152Z 20008KT 5SM BKN012 21/19 A2996 RMK SLP192 5//// 920 8/500 HZY LWR SC RTS


Station Type Date Time Source
MMRX Decoded METAR 2023/01/30 11:52 UTC NOAA

Reynosa International Airport , Mexico (MMRX) 26-01N 098-14W
Jan 30, 2023 - 06:52 AM EST / 2023.01.30 1152 UTC
Wind: from the SSW (200 degrees) at 9 MPH (8 KT):0
Visibility: 5 mile(s):0
Sky conditions: mostly cloudy
Temperature: 69 F (21 C)
Dew Point: 66 F (19 C)
Relative Humidity: 88%
Pressure (altimeter): 29.96 in. Hg (1014 hPa)
ob: MMRX 301152Z 20008KT 5SM BKN012 21/19 A2996 RMK SLP192 5//// 920 8/500 HZY LWR SC RTS
cycle: 12

Station Type Date Time Source
MMRX TAF 2023/01/30 12:15 UTC NOAA

TAF
AMD TAF
AMD MMRX 301212Z 3012/3106 20008KT 5SM BKN012
TEMPO 3012/3016 2SM BR -DZ OVC005
FM301600 34015KT 4SM HZ OVC020
FM310000 12020KT P6SM BKN020
FM310300 12015KT 4SM HZ SCT015

Example: see airport list